createdAt,value
2019-04-20T00:00:52.888Z,6.0
2019-04-20T00:02:53.240Z,6.6
2019-04-20T00:04:51.359Z,5.6
2019-04-20T00:06:51.090Z,6.3
2019-04-20T00:08:55.351Z,6.3
2019-04-20T00:10:54.730Z,5.8
2019-04-20T00:13:01.899Z,6.9
2019-04-20T00:14:50.014Z,6.0
2019-04-20T00:16:50.537Z,7.9
2019-04-20T00:18:53.727Z,6.8
2019-04-20T00:20:57.405Z,6.8
2019-04-20T00:22:51.743Z,5.8
2019-04-20T00:24:56.675Z,5.8
2019-04-20T00:27:13.290Z,6.3
2019-04-20T00:29:05.394Z,6.3
2019-04-20T00:30:58.478Z,7.0
2019-04-20T00:32:58.397Z,6.1
2019-04-20T00:34:50.592Z,6.0
2019-04-20T00:36:50.154Z,5.8
2019-04-20T00:38:53.334Z,5.8
2019-04-20T00:40:56.057Z,6.9
2019-04-20T00:42:52.361Z,6.3
2019-04-20T00:44:56.153Z,6.3
2019-04-20T00:47:00.673Z,7.0
2019-04-20T00:48:55.707Z,7.0
2019-04-20T00:51:02.818Z,6.4
2019-04-20T00:53:03.009Z,5.8
2019-04-20T00:54:49.543Z,5.8
2019-04-20T00:56:49.881Z,6.5
2019-04-20T00:59:02.319Z,6.5
2019-04-20T01:02:58.761Z,7.7
2019-04-20T01:05:03.828Z,7.7
2019-04-20T01:07:01.038Z,6.3
2019-04-20T01:08:50.858Z,6.3
2019-04-20T01:10:53.151Z,7.0
2019-04-20T01:12:51.911Z,6.8
2019-04-20T01:14:53.867Z,6.6
2019-04-20T01:16:56.819Z,6.9
2019-04-20T01:18:50.044Z,6.9
2019-04-20T01:20:51.163Z,8.2
2019-04-20T01:22:54.482Z,6.3
2019-04-20T01:24:51.544Z,7.8
2019-04-20T01:26:54.787Z,7.8
2019-04-20T01:28:58.149Z,6.7
2019-04-20T01:30:59.854Z,6.3
2019-04-20T01:33:03.330Z,6.8
2019-04-20T01:34:58.420Z,6.5
2019-04-20T01:39:02.585Z,8.9
2019-04-20T01:40:50.539Z,6.8
2019-04-20T01:42:51.058Z,6.5
2019-04-20T01:44:52.310Z,6.5
2019-04-20T01:46:53.200Z,7.9
2019-04-20T01:48:50.629Z,6.5
2019-04-20T01:50:59.210Z,7.0
2019-04-20T01:52:57.649Z,7.0
2019-04-20T01:55:11.249Z,8.4
2019-04-20T01:56:57.914Z,8.4
2019-04-20T01:59:04.410Z,8.2
2019-04-20T02:00:51.539Z,8.3
2019-04-20T02:02:55.407Z,6.9
2019-04-20T02:04:52.469Z,6.9
2019-04-20T02:06:53.760Z,6.6
2019-04-20T02:08:57.244Z,7.6
2019-04-20T02:10:53.649Z,7.2
2019-04-20T02:12:54.344Z,7.2
2019-04-20T02:14:55.427Z,7.1
2019-04-20T02:16:53.998Z,8.5
2019-04-20T02:19:05.138Z,7.2
2019-04-20T02:21:09.235Z,7.3
2019-04-20T02:23:03.013Z,6.7
2019-04-20T02:24:51.016Z,6.7
2019-04-20T02:26:51.856Z,7.6
2019-04-20T02:33:16.397Z,7.7
2019-04-20T02:37:23.425Z,7.6
2019-04-20T02:39:28.533Z,8.4
2019-04-20T02:49:28.936Z,8.0
2019-04-20T02:51:21.875Z,10.2
2019-04-20T02:53:19.874Z,7.4
2019-04-20T02:55:22.327Z,7.4
2019-04-20T02:59:46.779Z,7.5
2019-04-20T03:01:09.481Z,8.9
2019-04-20T03:02:59.483Z,8.9
2019-04-20T03:05:02.335Z,7.5
2019-04-20T03:07:03.564Z,10.2
2019-04-20T03:09:02.223Z,10.2
2019-04-20T03:11:14.490Z,8.8
2019-04-20T03:13:07.782Z,8.8
2019-04-20T03:15:01.493Z,7.0
2019-04-20T03:16:58.506Z,7.7
2019-04-20T03:18:58.192Z,8.0
2019-04-20T03:21:10.949Z,7.8
2019-04-20T03:23:22.801Z,7.8
2019-04-20T03:25:11.005Z,8.8
2019-04-20T03:27:05.587Z,8.3
2019-04-20T03:28:56.513Z,9.2
2019-04-20T03:32:03.011Z,9.2
2019-04-20T03:33:22.860Z,8.8
2019-04-20T03:35:05.006Z,8.7
2019-04-20T03:37:06.689Z,8.1
2019-04-20T03:39:08.224Z,9.5
2019-04-20T03:41:01.069Z,9.5
2019-04-20T03:42:50.657Z,7.9
2019-04-20T03:44:56.225Z,7.9
2019-04-20T03:46:55.388Z,11.0
2019-04-20T03:49:03.555Z,12.3
2019-04-20T03:51:06.899Z,8.5
2019-04-20T03:53:08.234Z,8.5
2019-04-20T03:54:58.338Z,9.3
2019-04-20T03:57:16.869Z,9.3
2019-04-20T03:59:04.346Z,9.3
2019-04-20T04:01:03.700Z,8.5
2019-04-20T04:03:07.583Z,7.8
2019-04-20T04:05:04.153Z,8.8
2019-04-20T04:06:52.913Z,9.3
2019-04-20T04:09:02.238Z,9.0
2019-04-20T04:12:51.376Z,8.8
2019-04-20T04:14:50.103Z,11.2
2019-04-20T04:16:54.086Z,10.4
2019-04-20T04:18:59.089Z,10.2
2019-04-20T04:20:51.943Z,10.2
2019-04-20T04:23:03.542Z,9.6
2019-04-20T04:24:56.850Z,8.4
2019-04-20T04:26:58.192Z,11.2
2019-04-20T04:29:12.275Z,11.2
2019-04-20T04:31:07.736Z,9.1
2019-04-20T04:33:19.832Z,9.4
2019-04-20T04:35:05.030Z,9.0
2019-04-20T04:37:10.263Z,9.4
2019-04-20T04:39:02.420Z,11.0
2019-04-20T04:41:13.306Z,11.0
2019-04-20T04:43:10.017Z,9.0
2019-04-20T04:44:58.144Z,9.6
2019-04-20T04:46:54.592Z,8.9
2019-04-20T04:48:52.807Z,9.9
2019-04-20T04:50:54.278Z,9.9
2019-04-20T04:52:59.398Z,8.7
2019-04-20T04:54:56.516Z,8.7
2019-04-20T04:56:50.373Z,8.7
2019-04-20T05:00:51.129Z,9.4
2019-04-20T05:02:53.717Z,9.8
2019-04-20T05:05:09.932Z,9.3
2019-04-20T05:07:02.399Z,9.3
2019-04-20T05:08:54.773Z,9.2
2019-04-20T05:10:49.991Z,10.6
2019-04-20T05:12:51.375Z,9.6
2019-04-20T05:15:00.928Z,10.9
2019-04-20T05:17:01.405Z,10.9
2019-04-20T05:19:13.125Z,10.3
2019-04-20T05:21:09.723Z,9.6
2019-04-20T05:23:03.674Z,9.6
2019-04-20T05:25:10.492Z,9.1
2019-04-20T05:27:13.063Z,10.0
2019-04-20T05:28:58.791Z,9.7
2019-04-20T05:30:54.494Z,9.9
2019-04-20T05:32:56.652Z,10.9
2019-04-20T05:35:03.966Z,10.9
2019-04-20T05:37:14.888Z,10.8
2019-04-20T05:41:01.504Z,9.9
2019-04-20T05:43:10.466Z,9.9
2019-04-20T05:45:07.168Z,9.9
2019-04-20T05:47:05.335Z,9.9
2019-04-20T05:51:07.112Z,9.8
2019-04-20T05:55:08.643Z,11.1
2019-04-20T05:57:14.232Z,11.1
2019-04-20T06:03:05.385Z,11.7
2019-04-20T06:05:08.267Z,11.2
2019-04-20T06:07:07.918Z,11.2
2019-04-20T06:09:09.690Z,9.4
2019-04-20T06:13:06.154Z,10.6
2019-04-20T06:14:59.696Z,9.7
2019-04-20T06:17:08.657Z,9.7
2019-04-20T06:19:19.710Z,13.4
2019-04-20T06:21:19.376Z,9.8
2019-04-20T06:23:11.709Z,9.3
2019-04-20T06:25:21.676Z,9.3
2019-04-20T06:27:07.956Z,10.6
2019-04-20T06:29:04.143Z,9.9
2019-04-20T06:31:12.753Z,8.9
2019-04-20T06:33:12.667Z,8.6
2019-04-20T06:35:18.537Z,8.6
2019-04-20T06:37:05.675Z,8.7
2019-04-20T06:39:15.883Z,8.5
2019-04-20T06:41:04.829Z,9.9
2019-04-20T06:43:10.920Z,7.9
2019-04-20T06:45:09.605Z,7.9
2019-04-20T06:47:17.467Z,8.3
2019-04-20T06:49:09.839Z,8.1
2019-04-20T06:51:07.078Z,8.8
2019-04-20T06:53:11.883Z,7.4
2019-04-20T06:55:04.996Z,7.4
2019-04-20T06:57:09.724Z,9.1
2019-04-20T06:59:19.473Z,7.5
2019-04-20T07:01:10.382Z,8.6
2019-04-20T07:03:14.167Z,7.2
2019-04-20T07:05:11.649Z,7.2
2019-04-20T07:07:02.164Z,7.3
2019-04-20T07:09:13.733Z,9.8
2019-04-20T07:11:10.411Z,7.5
2019-04-20T07:13:06.004Z,7.5
2019-04-20T07:14:58.527Z,7.1
2019-04-20T07:17:17.505Z,7.7
2019-04-20T07:19:06.019Z,9.7
2019-04-20T07:21:05.172Z,7.3
2019-04-20T07:25:04.892Z,7.8
2019-04-20T07:29:15.209Z,7.7
2019-04-20T07:31:01.530Z,7.7
2019-04-20T07:33:08.382Z,7.7
2019-04-20T07:35:08.039Z,7.3
2019-04-20T07:37:34.973Z,9.1
2019-04-20T07:39:13.093Z,7.3
2019-04-20T07:41:05.553Z,7.2
2019-04-20T07:43:02.389Z,7.2
2019-04-20T07:45:14.654Z,7.8
2019-04-20T07:47:13.352Z,6.7
2019-04-20T07:49:12.531Z,7.5
2019-04-20T07:50:57.870Z,7.5
2019-04-20T07:52:56.235Z,6.9
2019-04-20T07:57:09.423Z,6.2
2019-04-20T07:58:53.297Z,9.4
2019-04-20T08:01:14.060Z,9.4
2019-04-20T08:03:16.169Z,9.3
2019-04-20T08:05:04.245Z,6.7
2019-04-20T08:06:53.752Z,10.0
2019-04-20T08:09:02.259Z,6.5
2019-04-20T08:11:06.888Z,6.5
2019-04-20T08:13:16.021Z,6.6
2019-04-20T08:15:10.805Z,7.7
2019-04-20T08:17:19.925Z,5.9
2019-04-20T08:19:04.011Z,8.2
2019-04-20T08:21:07.951Z,8.2
2019-04-20T08:23:12.076Z,6.3
2019-04-20T08:25:04.377Z,7.9
2019-04-20T08:26:55.490Z,7.9
2019-04-20T08:28:56.680Z,6.0
2019-04-20T08:31:04.895Z,6.0
2019-04-20T08:33:02.372Z,6.1
2019-04-20T08:35:04.727Z,6.7
2019-04-20T08:37:05.800Z,7.1
2019-04-20T08:39:19.794Z,6.6
2019-04-20T08:41:07.087Z,6.6
2019-04-20T08:43:18.540Z,7.4
2019-04-20T08:45:03.522Z,8.2
2019-04-20T08:47:09.805Z,7.8
2019-04-20T08:49:07.993Z,7.8
2019-04-20T08:51:06.915Z,7.2
2019-04-20T08:55:04.541Z,6.2
2019-04-20T08:56:55.246Z,7.7
2019-04-20T08:58:50.688Z,7.7
2019-04-20T09:00:55.259Z,7.0
2019-04-20T09:02:55.422Z,6.2
2019-04-20T09:04:56.830Z,7.2
2019-04-20T09:07:00.806Z,7.5
2019-04-20T09:09:03.305Z,7.5
2019-04-20T09:11:05.232Z,6.9
2019-04-20T09:13:02.110Z,6.9
2019-04-20T09:14:50.766Z,7.0
2019-04-20T09:16:53.344Z,7.0
2019-04-20T09:18:57.361Z,6.6
2019-04-20T09:20:55.743Z,6.5
2019-04-20T09:23:06.676Z,6.8
2019-04-20T09:25:17.582Z,8.4
2019-04-20T09:27:04.429Z,8.4
2019-04-20T09:29:02.700Z,6.6
2019-04-20T09:30:58.976Z,8.4
2019-04-20T09:33:09.003Z,6.6
2019-04-20T09:35:05.888Z,8.1
2019-04-20T09:37:09.344Z,8.1
2019-04-20T09:38:59.566Z,6.5
2019-04-20T09:41:06.775Z,7.1
2019-04-20T09:42:49.726Z,6.6
2019-04-20T09:44:53.587Z,7.3
2019-04-20T09:46:54.609Z,7.3
2019-04-20T09:48:56.036Z,7.2
2019-04-20T09:51:02.123Z,9.5
2019-04-20T09:53:05.798Z,9.5
2019-04-20T09:54:58.813Z,6.8
2019-04-20T09:57:08.803Z,6.8
2019-04-20T09:59:07.867Z,6.8
2019-04-20T10:01:01.632Z,7.2
2019-04-20T10:02:50.487Z,7.2
2019-04-20T10:04:51.196Z,6.7
2019-04-20T10:06:49.741Z,6.7
2019-04-20T10:08:54.143Z,6.9
2019-04-20T10:10:50.788Z,7.5
2019-04-20T10:12:50.109Z,7.5
2019-04-20T10:14:50.904Z,7.8
2019-04-20T10:16:51.461Z,7.8
2019-04-20T10:18:53.199Z,6.9
2019-04-20T10:20:49.820Z,6.9
2019-04-20T10:22:50.780Z,6.8
2019-04-20T10:24:50.448Z,7.4
2019-04-20T10:26:50.508Z,7.4
2019-04-20T10:28:49.795Z,9.7
2019-04-20T10:30:50.430Z,7.8
2019-04-20T10:32:52.213Z,6.9
2019-04-20T10:34:50.614Z,6.9
2019-04-20T10:36:51.301Z,6.9
2019-04-20T10:38:50.669Z,6.5
2019-04-20T10:40:56.953Z,8.7
2019-04-20T10:42:50.102Z,8.7
2019-04-20T10:44:52.211Z,9.1
2019-04-20T10:46:49.453Z,7.0
2019-04-20T10:48:52.545Z,7.1
2019-04-20T10:50:50.066Z,6.8
2019-04-20T10:52:50.145Z,6.8
2019-04-20T10:54:50.338Z,7.4
2019-04-20T10:56:49.803Z,7.4
2019-04-20T10:58:49.887Z,7.2
2019-04-20T11:00:51.831Z,7.3
2019-04-20T11:02:50.813Z,6.6
2019-04-20T11:04:50.580Z,6.6
2019-04-20T11:06:50.299Z,7.3
2019-04-20T11:08:50.695Z,7.8
2019-04-20T11:11:00.137Z,7.8
2019-04-20T11:12:50.502Z,6.6
2019-04-20T11:14:50.169Z,7.0
2019-04-20T11:16:50.784Z,9.8
2019-04-20T11:18:49.910Z,6.6
2019-04-20T11:20:51.069Z,7.0
2019-04-20T11:22:50.562Z,7.0
2019-04-20T11:24:50.202Z,7.0
2019-04-20T11:26:49.870Z,8.1
2019-04-20T11:28:50.361Z,7.3
2019-04-20T11:30:50.055Z,6.6
2019-04-20T11:32:50.328Z,6.6
2019-04-20T11:34:51.201Z,6.6
2019-04-20T11:36:50.812Z,6.8
2019-04-20T11:38:51.081Z,7.1
2019-04-20T11:41:01.370Z,6.0
2019-04-20T11:42:49.922Z,6.0
2019-04-20T11:44:50.746Z,10.3
2019-04-20T11:46:50.319Z,6.2
2019-04-20T11:48:49.568Z,8.0
2019-04-20T11:50:49.710Z,8.0
2019-04-20T11:52:51.408Z,6.2
2019-04-20T11:54:50.477Z,6.0
2019-04-20T11:56:51.119Z,6.4
2019-04-20T11:58:51.054Z,6.3
2019-04-20T12:00:59.295Z,6.3
2019-04-20T12:02:53.589Z,6.1
2019-04-20T12:05:06.223Z,6.5
2019-04-20T12:06:50.687Z,6.3
2019-04-20T12:08:49.989Z,6.8
2019-04-20T12:10:54.661Z,6.8
2019-04-20T12:12:51.888Z,6.5
2019-04-20T12:14:50.500Z,6.1
2019-04-20T12:16:50.028Z,7.5
2019-04-20T12:18:50.403Z,6.5
2019-04-20T12:20:50.404Z,6.5
2019-04-20T12:22:50.398Z,6.4
2019-04-20T12:24:49.945Z,6.2
2019-04-20T12:26:51.012Z,6.2
2019-04-20T12:28:51.532Z,6.5
2019-04-20T12:30:49.863Z,6.5
2019-04-20T12:32:55.052Z,6.5
2019-04-20T12:34:49.856Z,6.3
2019-04-20T12:36:51.107Z,6.1
2019-04-20T12:38:50.935Z,6.9
2019-04-20T12:40:50.370Z,6.9
2019-04-20T12:42:50.833Z,6.7
2019-04-20T12:44:50.055Z,5.6
2019-04-20T12:46:50.368Z,8.1
2019-04-20T12:48:51.426Z,8.1
2019-04-20T12:50:49.942Z,9.3
2019-04-20T12:52:50.368Z,11.1
2019-04-20T12:54:50.433Z,6.9
2019-04-20T12:56:50.674Z,6.9
2019-04-20T12:58:49.984Z,6.0
2019-04-20T13:00:50.360Z,5.7
2019-04-20T13:02:51.460Z,5.6
2019-04-20T13:04:51.140Z,5.6
2019-04-20T13:06:52.269Z,5.6
2019-04-20T13:08:53.689Z,6.2
2019-04-20T13:10:50.684Z,6.3
2019-04-20T13:12:50.198Z,5.6
2019-04-20T13:14:50.651Z,5.7
2019-04-20T13:16:50.489Z,5.7
2019-04-20T13:18:50.890Z,6.0
2019-04-20T13:20:50.105Z,6.5
2019-04-20T13:22:50.866Z,5.2
2019-04-20T13:24:49.648Z,5.6
2019-04-20T13:26:50.950Z,5.6
2019-04-20T13:28:50.872Z,5.8
2019-04-20T13:30:50.075Z,5.5
2019-04-20T13:32:49.823Z,5.5
2019-04-20T13:34:50.154Z,6.2
2019-04-20T13:36:50.453Z,6.2
2019-04-20T13:38:50.183Z,6.3
2019-04-20T13:40:51.447Z,6.4
2019-04-20T13:42:49.900Z,5.5
2019-04-20T13:44:50.767Z,5.7
2019-04-20T13:46:49.679Z,5.7
2019-04-20T13:48:51.026Z,5.4
2019-04-20T13:50:49.889Z,5.4
2019-04-20T13:52:49.766Z,5.7
2019-04-20T13:54:50.081Z,5.7
2019-04-20T13:56:50.083Z,5.7
2019-04-20T13:58:50.111Z,7.1
2019-04-20T14:00:50.874Z,5.6
2019-04-20T14:02:50.975Z,5.5
2019-04-20T14:04:50.774Z,13.3
2019-04-20T14:06:51.056Z,13.3
2019-04-20T14:08:49.502Z,5.7
2019-04-20T14:10:49.630Z,5.7
2019-04-20T14:12:57.137Z,5.7
2019-04-20T14:14:50.933Z,5.6
2019-04-20T14:16:50.533Z,5.6
2019-04-20T14:18:51.062Z,6.8
2019-04-20T14:20:50.354Z,6.0
2019-04-20T14:22:52.234Z,5.4
2019-04-20T14:24:50.994Z,6.2
2019-04-20T14:26:50.729Z,6.2
2019-04-20T14:28:49.574Z,5.3
2019-04-20T14:30:50.373Z,5.0
2019-04-20T14:32:50.484Z,6.2
2019-04-20T14:34:51.187Z,6.2
2019-04-20T14:36:50.894Z,6.8
2019-04-20T14:38:49.949Z,4.9
2019-04-20T14:40:50.329Z,5.1
2019-04-20T14:42:51.969Z,5.1
2019-04-20T14:44:50.024Z,4.9
2019-04-20T14:46:50.015Z,7.7
2019-04-20T14:48:49.670Z,4.7
2019-04-20T14:50:49.869Z,6.3
2019-04-20T14:52:49.801Z,5.1
2019-04-20T14:54:49.759Z,5.1
2019-04-20T14:56:51.356Z,4.7
2019-04-20T14:58:51.399Z,5.7
2019-04-20T15:00:52.747Z,6.1
2019-04-20T15:02:49.995Z,6.1
2019-04-20T15:04:50.488Z,5.0
2019-04-20T15:06:50.569Z,4.7
2019-04-20T15:08:50.411Z,6.2
2019-04-20T15:10:51.135Z,6.0
2019-04-20T15:12:55.701Z,6.0
2019-04-20T15:14:50.366Z,4.7
2019-04-20T15:16:50.501Z,7.8
2019-04-20T15:18:51.293Z,4.7
2019-04-20T15:20:50.961Z,4.6
2019-04-20T15:22:49.871Z,4.6
2019-04-20T15:24:49.621Z,4.5
2019-04-20T15:26:49.676Z,4.8
2019-04-20T15:28:50.430Z,4.9
2019-04-20T15:30:50.374Z,4.9
2019-04-20T15:32:52.166Z,4.5
2019-04-20T15:34:50.918Z,6.6
2019-04-20T15:36:50.387Z,5.5
2019-04-20T15:38:51.272Z,4.9
2019-04-20T15:40:50.726Z,5.4
2019-04-20T15:42:57.919Z,5.4
2019-04-20T15:44:49.599Z,4.9
2019-04-20T15:46:50.971Z,4.3
2019-04-20T15:48:50.204Z,6.3
2019-04-20T15:50:51.604Z,6.3
2019-04-20T15:52:52.630Z,6.3
2019-04-20T15:54:49.942Z,5.5
2019-04-20T15:56:56.402Z,7.7
2019-04-20T15:58:50.420Z,5.4
2019-04-20T16:00:51.260Z,5.2
2019-04-20T16:02:49.578Z,5.2
2019-04-20T16:04:50.634Z,4.3
2019-04-20T16:06:50.499Z,12.5
2019-04-20T16:08:50.270Z,4.3
2019-04-20T16:10:50.890Z,4.3
2019-04-20T16:13:01.902Z,4.2
2019-04-20T16:14:49.578Z,6.8
2019-04-20T16:16:50.698Z,4.8
2019-04-20T16:18:50.681Z,5.1
2019-04-20T16:20:56.346Z,5.1
2019-04-20T16:22:50.383Z,5.1
2019-04-20T16:24:49.504Z,5.5
2019-04-20T16:26:49.824Z,4.3
2019-04-20T16:28:50.105Z,4.4
2019-04-20T16:30:51.624Z,4.4
2019-04-20T16:32:50.257Z,4.9
2019-04-20T16:34:50.673Z,5.8
2019-04-20T16:36:52.702Z,5.6
2019-04-20T16:38:50.987Z,4.8
2019-04-20T16:40:50.417Z,4.8
2019-04-20T16:42:50.199Z,4.4
2019-04-20T16:44:51.375Z,4.5
2019-04-20T16:46:50.132Z,4.3
2019-04-20T16:48:49.453Z,4.3
2019-04-20T16:50:49.499Z,4.3
2019-04-20T16:52:50.750Z,6.7
2019-04-20T16:54:50.110Z,4.3
2019-04-20T16:56:50.719Z,4.6
2019-04-20T16:58:53.717Z,4.6
2019-04-20T17:00:50.081Z,4.1
2019-04-20T17:02:50.072Z,4.2
2019-04-20T17:04:51.953Z,9.2
2019-04-20T17:06:49.877Z,4.5
2019-04-20T17:08:51.151Z,4.5
2019-04-20T17:10:49.523Z,5.4
2019-04-20T17:12:49.528Z,4.1
2019-04-20T17:14:51.548Z,5.0
2019-04-20T17:16:51.103Z,4.0
2019-04-20T17:18:50.389Z,4.0
2019-04-20T17:20:50.584Z,3.7
2019-04-20T17:22:50.746Z,5.2
2019-04-20T17:24:51.362Z,3.9
2019-04-20T17:26:50.738Z,4.5
2019-04-20T17:28:52.274Z,4.5
2019-04-20T17:30:50.820Z,4.2
2019-04-20T17:32:49.901Z,5.8
2019-04-20T17:35:01.630Z,5.8
2019-04-20T17:36:50.578Z,5.0
2019-04-20T17:38:54.316Z,5.0
2019-04-20T17:41:02.667Z,4.8
2019-04-20T17:42:58.919Z,5.0
2019-04-20T17:45:00.415Z,4.8
2019-04-20T17:47:00.165Z,4.5
2019-04-20T17:49:02.791Z,4.5
2019-04-20T17:51:10.700Z,6.5
2019-04-20T17:53:04.895Z,4.3
2019-04-20T17:54:49.810Z,6.9
2019-04-20T17:56:49.676Z,6.9
2019-04-20T17:58:50.202Z,8.0
2019-04-20T18:00:52.908Z,5.4
2019-04-20T18:03:07.169Z,7.9
2019-04-20T18:05:12.467Z,9.6
2019-04-20T18:07:00.543Z,9.6
2019-04-20T18:09:00.842Z,15.6
2019-04-20T18:10:58.069Z,13.9
2019-04-20T18:12:53.865Z,9.8
2019-04-20T18:15:00.288Z,9.8
2019-04-20T18:17:06.524Z,10.9
2019-04-20T18:18:58.114Z,7.0
2019-04-20T18:20:50.524Z,6.5
2019-04-20T18:22:53.503Z,5.4
2019-04-20T18:25:12.018Z,9.7
2019-04-20T18:27:06.577Z,9.7
2019-04-20T18:29:08.610Z,15.8
2019-04-20T18:30:57.190Z,12.9
2019-04-20T18:32:49.746Z,12.9
2019-04-20T18:34:52.740Z,9.1
2019-04-20T18:36:51.082Z,9.1
2019-04-20T18:38:57.162Z,6.8
2019-04-20T18:40:55.600Z,5.7
2019-04-20T18:42:55.743Z,5.7
2019-04-20T18:45:08.827Z,5.7
2019-04-20T18:47:10.483Z,6.0
2019-04-20T18:49:04.622Z,10.3
2019-04-20T18:50:50.699Z,8.2
2019-04-20T18:52:49.849Z,7.1
2019-04-20T18:54:51.914Z,7.1
2019-04-20T18:56:51.209Z,7.0
2019-04-20T18:58:49.719Z,6.5
2019-04-20T19:00:51.807Z,5.6
2019-04-20T19:02:52.348Z,5.6
2019-04-20T19:04:50.186Z,7.9
2019-04-20T19:06:50.389Z,7.9
2019-04-20T19:08:51.808Z,5.8
2019-04-20T19:10:57.434Z,5.8
2019-04-20T19:12:57.056Z,8.4
2019-04-20T19:14:51.302Z,8.4
2019-04-20T19:16:55.241Z,9.8
2019-04-20T19:19:00.387Z,6.8
2019-04-20T19:20:50.819Z,6.1
2019-04-20T19:22:50.087Z,8.1
2019-04-20T19:24:50.174Z,8.1
2019-04-20T19:26:54.082Z,6.3
2019-04-20T19:28:54.364Z,7.9
2019-04-20T19:30:56.262Z,11.3
2019-04-20T19:33:08.815Z,11.3
2019-04-20T19:34:59.197Z,7.7
2019-04-20T19:37:00.770Z,7.2
2019-04-20T19:39:00.638Z,6.1
2019-04-20T19:40:58.102Z,7.7
2019-04-20T19:43:02.195Z,7.7
2019-04-20T19:45:01.332Z,7.7
2019-04-20T19:47:10.399Z,7.6
2019-04-20T19:48:55.591Z,9.2
2019-04-20T19:51:09.587Z,7.7
2019-04-20T19:53:16.277Z,7.7
2019-04-20T19:55:01.200Z,8.1
2019-04-20T19:57:04.736Z,9.8
2019-04-20T19:59:02.460Z,6.9
2019-04-20T20:00:51.517Z,7.2
2019-04-20T20:02:49.921Z,7.2
2019-04-20T20:04:53.556Z,8.2
2019-04-20T20:06:56.132Z,7.1
2019-04-20T20:08:55.663Z,8.2
2019-04-20T20:10:50.533Z,9.2
2019-04-20T20:12:55.813Z,9.2
2019-04-20T20:14:51.344Z,7.3
2019-04-20T20:16:58.548Z,8.7
2019-04-20T20:19:01.231Z,9.6
2019-04-20T20:21:04.408Z,9.6
2019-04-20T20:22:53.067Z,10.6
2019-04-20T20:24:51.166Z,8.1
2019-04-20T20:26:56.213Z,8.1
2019-04-20T20:29:03.419Z,8.7
2019-04-20T20:31:01.329Z,8.7
2019-04-20T20:33:02.783Z,9.6
2019-04-20T20:34:55.854Z,9.7
2019-04-20T20:36:54.484Z,8.5
2019-04-20T20:38:52.391Z,10.7
2019-04-20T20:40:57.472Z,10.7
2019-04-20T20:43:01.020Z,10.4
2019-04-20T20:44:54.768Z,7.6
2019-04-20T20:46:58.897Z,8.9
2019-04-20T20:49:09.021Z,7.3
2019-04-20T20:51:03.631Z,7.3
2019-04-20T20:53:00.660Z,8.1
2019-04-20T20:54:58.505Z,10.1
2019-04-20T20:56:59.364Z,8.4
2019-04-20T20:58:59.131Z,8.4
2019-04-20T21:00:57.307Z,7.3
2019-04-20T21:02:53.664Z,8.5
2019-04-20T21:04:49.570Z,7.9
2019-04-20T21:06:50.833Z,8.0
2019-04-20T21:08:52.261Z,8.0
2019-04-20T21:10:50.694Z,8.2
2019-04-20T21:12:55.371Z,8.8
2019-04-20T21:14:51.012Z,10.9
2019-04-20T21:16:58.954Z,10.9
2019-04-20T21:19:03.724Z,9.8
2019-04-20T21:21:01.808Z,9.8
2019-04-20T21:23:06.776Z,9.8
2019-04-20T21:24:51.311Z,9.5
2019-04-20T21:26:50.056Z,7.8
2019-04-20T21:28:50.056Z,7.8
2019-04-20T21:30:51.809Z,7.5
2019-04-20T21:32:52.464Z,10.0
2019-04-20T21:34:55.494Z,10.0
2019-04-20T21:36:50.634Z,9.2
2019-04-20T21:38:50.160Z,9.2
2019-04-20T21:40:54.929Z,8.6
2019-04-20T21:42:57.157Z,16.0
2019-04-20T21:44:52.221Z,9.5
2019-04-20T21:46:54.042Z,9.9
2019-04-20T21:49:01.546Z,9.9
2019-04-20T21:50:58.171Z,8.0
2019-04-20T21:52:53.842Z,9.6
2019-04-20T21:54:50.360Z,10.5
2019-04-20T21:56:56.021Z,8.8
2019-04-20T21:58:54.539Z,8.8
2019-04-20T22:01:02.047Z,8.3
2019-04-20T22:02:54.555Z,8.2
2019-04-20T22:04:49.785Z,7.7
2019-04-20T22:06:50.114Z,7.7
2019-04-20T22:08:51.706Z,11.4
2019-04-20T22:10:50.307Z,8.5
2019-04-20T22:12:53.848Z,8.6
2019-04-20T22:14:58.706Z,9.6
2019-04-20T22:16:53.273Z,9.6
2019-04-20T22:18:57.895Z,8.8
2019-04-20T22:21:03.418Z,9.3
2019-04-20T22:23:02.505Z,10.4
2019-04-20T22:25:01.006Z,10.1
2019-04-20T22:26:59.863Z,10.1
2019-04-20T22:28:50.064Z,8.9
2019-04-20T22:30:50.353Z,9.3
2019-04-20T22:32:50.261Z,9.3
2019-04-20T22:34:56.728Z,8.3
2019-04-20T22:36:50.491Z,8.3
2019-04-20T22:38:54.265Z,10.9
2019-04-20T22:40:49.757Z,10.7
2019-04-20T22:42:53.076Z,9.5
2019-04-20T22:44:56.211Z,9.7
2019-04-20T22:46:50.046Z,9.7
2019-04-20T22:48:55.826Z,8.5
2019-04-20T22:51:10.061Z,9.6
2019-04-20T22:52:56.687Z,9.8
2019-04-20T22:57:00.584Z,9.5
2019-04-20T22:58:56.198Z,8.6
2019-04-20T23:00:55.847Z,13.1
2019-04-20T23:02:50.901Z,9.0
2019-04-20T23:04:50.769Z,9.0
2019-04-20T23:06:50.536Z,9.8
2019-04-20T23:10:49.840Z,9.4
2019-04-20T23:12:51.332Z,9.4
2019-04-20T23:14:50.279Z,9.0
2019-04-20T23:16:53.475Z,11.3
2019-04-20T23:18:49.932Z,10.8
2019-04-20T23:20:50.143Z,8.4
2019-04-20T23:22:51.280Z,8.2
2019-04-20T23:24:51.038Z,8.2
2019-04-20T23:26:50.796Z,9.3
2019-04-20T23:28:52.464Z,11.1
2019-04-20T23:30:51.761Z,9.5
2019-04-20T23:32:51.465Z,10.7
2019-04-20T23:34:57.409Z,10.7
2019-04-20T23:36:50.701Z,8.9
2019-04-20T23:38:53.911Z,7.7
2019-04-20T23:40:50.004Z,7.7
2019-04-20T23:42:51.394Z,8.7
2019-04-20T23:44:54.207Z,7.7
2019-04-20T23:46:52.296Z,7.7
2019-04-20T23:48:50.380Z,9.3
2019-04-20T23:50:57.838Z,9.6
2019-04-20T23:53:05.037Z,9.0
2019-04-20T23:54:57.026Z,9.0
2019-04-20T23:56:50.147Z,8.3
2019-04-20T23:58:53.190Z,8.3
